Time;durP1;ratioP1;P1;durP2;ratioP2;P2;SDS_P1;SDS_P2;PMS_P1;PMS_P2;Temp;Humidity;BMP_temperature;BMP_pressure;BME280_temperature;BME280_humidity;BME280_pressure;Samples;Min_cycle;Max_cycle;Signal;HPM_P1;HPM_P2
2023/11/10 00:01:22;;;;;;;27.80;19.00;;;;;;;5.39;95.95;100138.61;105571;1259;59784;-75
2023/11/10 00:03:51;;;;;;;27.40;17.60;;;;;;;5.37;96.00;100142.54;105870;1260;61518;-73
2023/11/10 00:06:19;;;;;;;20.90;17.70;;;;;;;5.43;95.77;100143.76;106325;1257;71833;-75
2023/11/10 00:08:46;;;;;;;25.60;17.60;;;;;;;5.48;95.52;100146.30;105680;1264;69531;-75
2023/11/10 00:11:14;;;;;;;27.60;19.90;;;;;;;5.46;95.38;100144.71;107107;1261;72522;-76
2023/11/10 00:13:41;;;;;;;26.80;20.70;;;;;;;5.42;95.26;100143.98;107228;1258;60166;-76
2023/11/10 00:16:09;;;;;;;24.90;18.40;;;;;;;5.42;95.26;100143.33;106609;1256;59506;-77
2023/11/10 00:18:37;;;;;;;25.80;17.80;;;;;;;5.48;94.58;100144.44;105753;1260;73612;-75
2023/11/10 00:21:05;;;;;;;23.70;18.10;;;;;;;5.46;94.65;100141.95;105892;1262;68750;-76
2023/11/10 00:23:33;;;;;;;25.40;19.10;;;;;;;5.40;94.68;100142.27;105783;1259;71488;-74
2023/11/10 00:26:00;;;;;;;22.30;17.80;;;;;;;5.35;94.80;100143.19;105717;1260;60723;-72
2023/11/10 00:28:28;;;;;;;24.30;18.30;;;;;;;5.40;94.58;100144.70;105689;1260;59995;-74
2023/11/10 00:30:55;;;;;;;27.30;18.10;;;;;;;5.39;94.44;100149.19;105703;1261;71820;-74
2023/11/10 00:33:24;;;;;;;31.50;20.40;;;;;;;5.31;94.47;100147.91;105696;1257;69348;-75
2023/11/10 00:35:53;;;;;;;24.90;18.60;;;;;;;5.25;94.59;100150.16;105779;1261;73715;-75
2023/11/10 00:38:22;;;;;;;22.80;16.80;;;;;;;5.29;94.52;100146.44;105776;1260;60803;-72
2023/11/10 00:40:49;;;;;;;23.20;18.10;;;;;;;5.30;94.11;100152.66;105741;1258;59986;-73
2023/11/10 00:43:16;;;;;;;26.10;20.80;;;;;;;5.24;94.41;100147.08;105767;1257;70475;-75
2023/11/10 00:45:44;;;;;;;23.80;19.80;;;;;;;5.17;94.58;100145.15;105535;1257;68302;-73
2023/11/10 00:48:12;;;;;;;22.20;18.30;;;;;;;5.19;94.38;100147.08;105596;1257;73922;-73
2023/11/10 00:50:41;;;;;;;27.30;19.70;;;;;;;5.23;94.13;100143.45;105551;1258;60049;-75
2023/11/10 00:53:09;;;;;;;27.00;20.70;;;;;;;5.18;94.50;100141.36;105695;1259;59684;-76
2023/11/10 00:55:38;;;;;;;24.80;21.80;;;;;;;5.11;94.59;100144.52;105663;1258;73047;-75
2023/11/10 00:58:06;;;;;;;21.80;18.50;;;;;;;5.07;94.67;100146.33;105482;1260;69998;-76
2023/11/10 01:00:33;;;;;;;22.70;17.50;;;;;;;5.10;94.32;100142.01;105508;1260;72715;-73
2023/11/10 01:03:03;;;;;;;25.00;19.80;;;;;;;5.12;94.25;100143.66;105577;1257;60119;-74
2023/11/10 01:05:30;;;;;;;26.30;21.00;;;;;;;5.05;94.18;100145.39;105472;1258;59948;-74
2023/11/10 01:07:58;;;;;;;26.20;20.20;;;;;;;4.99;94.81;100148.52;105786;1261;71814;-75
2023/11/10 01:10:26;;;;;;;21.70;17.80;;;;;;;5.01;94.57;100148.56;105599;1257;69975;-76
2023/11/10 01:12:53;;;;;;;21.40;19.10;;;;;;;5.02;94.34;100147.55;105536;1260;72444;-74
2023/11/10 01:15:21;;;;;;;26.30;19.80;;;;;;;4.95;94.31;100143.23;105570;1257;60113;-75
2023/11/10 01:17:48;;;;;;;24.00;19.30;;;;;;;4.87;94.71;100142.27;105589;1259;60123;-74
2023/11/10 01:20:17;;;;;;;20.10;17.90;;;;;;;4.90;94.59;100137.84;105647;1256;71863;-75
2023/11/10 01:22:44;;;;;;;25.50;19.60;;;;;;;4.95;94.48;100143.60;105797;1260;69194;-74
2023/11/10 01:25:13;;;;;;;22.10;19.40;;;;;;;4.91;94.53;100141.61;106141;1256;71048;-72
2023/11/10 01:27:44;;;;;;;23.90;20.10;;;;;;;4.85;94.71;100139.64;105628;1263;60315;-75
2023/11/10 01:30:12;;;;;;;26.10;20.90;;;;;;;4.83;94.67;100140.85;105656;1257;59643;-74
2023/11/10 01:32:41;;;;;;;21.70;18.70;;;;;;;4.89;94.43;100138.45;105854;1261;71801;-75
2023/11/10 01:35:10;;;;;;;23.70;19.60;;;;;;;4.87;94.23;100134.86;105709;1258;69930;-73
2023/11/10 01:37:37;;;;;;;28.60;20.60;;;;;;;4.80;94.31;100136.14;105514;1264;71438;-75
2023/11/10 01:40:06;;;;;;;25.90;19.20;;;;;;;4.74;94.46;100134.69;105552;1257;60582;-73
2023/11/10 01:42:34;;;;;;;27.90;21.20;;;;;;;4.79;94.32;100134.69;105779;1257;60164;-78
2023/11/10 01:45:02;;;;;;;26.00;20.60;;;;;;;4.81;93.95;100139.75;105546;1256;73361;-77
2023/11/10 01:47:30;;;;;;;24.10;20.80;;;;;;;4.74;93.98;100143.64;105580;1257;69979;-77
2023/11/10 01:49:57;;;;;;;26.90;20.00;;;;;;;4.65;94.31;100139.45;105649;1260;71415;-76
2023/11/10 01:52:25;;;;;;;24.90;19.40;;;;;;;4.66;94.29;100140.02;105567;1261;59944;-75
2023/11/10 01:54:52;;;;;;;25.30;20.90;;;;;;;4.69;94.06;100144.03;105985;1254;60045;-77
2023/11/10 01:57:20;;;;;;;25.90;21.40;;;;;;;4.64;94.35;100141.10;105943;1257;71837;-78
2023/11/10 01:59:47;;;;;;;25.70;19.50;;;;;;;4.58;94.61;100145.58;106095;1263;69589;-76
2023/11/10 02:02:15;;;;;;;23.40;19.20;;;;;;;4.61;94.46;100145.41;106255;1260;71730;-77
2023/11/10 02:04:43;;;;;;;26.00;19.90;;;;;;;4.66;93.91;100145.70;105814;1263;59729;-78
2023/11/10 02:07:10;;;;;;;26.30;20.80;;;;;;;4.61;94.04;100144.20;105582;1254;60007;-75
2023/11/10 02:09:42;;;;;;;23.20;19.50;;;;;;;4.53;94.29;100148.41;105683;1260;73204;-75
2023/11/10 02:12:10;;;;;;;22.30;17.90;;;;;;;4.55;94.34;100145.65;105535;1260;69027;-77
2023/11/10 02:14:37;;;;;;;24.60;21.20;;;;;;;4.58;93.77;100147.92;105619;1258;72317;-76
2023/11/10 02:17:05;;;;;;;24.30;20.10;;;;;;;4.52;93.82;100146.88;105778;1260;60092;-76
2023/11/10 02:19:33;;;;;;;30.20;20.80;;;;;;;4.45;94.23;100143.23;105786;1255;59269;-76
2023/11/10 02:22:02;;;;;;;25.00;18.80;;;;;;;4.46;94.21;100143.15;105714;1261;73112;-73
2023/11/10 02:24:29;;;;;;;22.10;18.70;;;;;;;4.52;93.85;100145.38;105636;1257;69015;-74
2023/11/10 02:26:57;;;;;;;23.60;19.70;;;;;;;4.48;93.83;100145.84;105758;1257;72462;-73
2023/11/10 02:29:24;;;;;;;23.00;18.30;;;;;;;4.41;93.96;100142.31;105778;1260;60568;-73
2023/11/10 02:31:54;;;;;;;24.70;18.90;;;;;;;4.39;94.03;100141.84;105669;1257;62075;-75
2023/11/10 02:34:23;;;;;;;21.30;16.70;;;;;;;4.47;93.60;100142.98;105770;1257;72169;-76
2023/11/10 02:36:51;;;;;;;21.90;18.00;;;;;;;4.46;93.55;100145.48;105617;1260;70305;-74
2023/11/10 02:39:18;;;;;;;23.30;18.90;;;;;;;4.40;93.85;100144.52;105758;1256;71668;-75
2023/11/10 02:41:46;;;;;;;22.00;18.10;;;;;;;4.35;93.79;100143.83;105675;1259;60422;-77
2023/11/10 02:44:14;;;;;;;22.10;17.70;;;;;;;4.40;93.37;100140.65;105726;1256;60586;-73
2023/11/10 02:46:41;;;;;;;23.10;17.40;;;;;;;4.44;93.33;100139.30;105654;1254;72579;-73
2023/11/10 02:49:08;;;;;;;25.00;20.00;;;;;;;4.41;93.44;100135.90;105709;1254;70558;-76
2023/11/10 02:51:36;;;;;;;22.80;20.00;;;;;;;4.35;93.38;100141.58;105635;1254;74811;-77
2023/11/10 02:54:04;;;;;;;23.70;18.90;;;;;;;4.35;93.23;100141.02;105748;1257;60500;-76
2023/11/10 02:56:31;;;;;;;26.50;20.50;;;;;;;4.41;93.06;100138.52;105958;1256;60606;-76
2023/11/10 02:58:59;;;;;;;28.30;22.00;;;;;;;4.35;92.81;100134.52;106011;1254;72573;-77
2023/11/10 03:01:27;;;;;;;28.60;22.30;;;;;;;4.28;92.99;100133.49;106153;1254;70397;-76
2023/11/10 03:03:54;;;;;;;32.80;23.70;;;;;;;4.25;93.09;100137.09;105822;1258;71928;-79
2023/11/10 03:06:22;;;;;;;26.80;20.40;;;;;;;4.30;92.89;100134.08;105995;1254;61096;-76
2023/11/10 03:08:51;;;;;;;29.90;21.80;;;;;;;4.32;92.67;100135.81;105830;1254;60598;-76
2023/11/10 03:11:19;;;;;;;28.60;23.50;;;;;;;4.27;93.05;100132.56;105803;1258;74769;-76
2023/11/10 03:13:48;;;;;;;28.30;22.90;;;;;;;4.23;93.11;100133.41;105957;1261;70633;-74
2023/11/10 03:16:16;;;;;;;22.70;19.30;;;;;;;4.27;92.73;100125.55;105674;1260;72923;-76
2023/11/10 03:18:43;;;;;;;26.50;21.70;;;;;;;4.32;92.79;100128.62;105761;1256;60769;-76
2023/11/10 03:21:16;;;;;;;24.50;20.00;;;;;;;4.29;92.55;100136.40;105660;1260;60771;-78
2023/11/10 03:23:44;;;;;;;23.60;18.90;;;;;;;4.24;92.81;100132.25;105728;1254;73917;-74
2023/11/10 03:26:12;;;;;;;23.80;17.50;;;;;;;4.25;92.65;100131.14;105589;1258;70560;-75
2023/11/10 03:28:40;;;;;;;22.30;17.80;;;;;;;4.33;92.14;100131.05;105690;1260;72333;-75
2023/11/10 03:31:08;;;;;;;23.20;18.70;;;;;;;4.31;92.12;100123.52;105770;1257;60444;-78
2023/11/10 03:33:35;;;;;;;23.00;17.30;;;;;;;4.26;92.37;100126.50;105753;1254;60445;-75
2023/11/10 03:36:03;;;;;;;19.20;16.30;;;;;;;4.22;92.57;100127.87;105617;1256;72900;-77
2023/11/10 03:38:31;;;;;;;18.90;15.10;;;;;;;4.28;92.32;100128.80;105889;1256;69242;-76
2023/11/10 03:40:58;;;;;;;20.50;15.80;;;;;;;4.31;92.10;100138.01;107814;1254;71444;-74
2023/11/10 03:43:26;;;;;;;21.80;17.10;;;;;;;4.27;92.07;100129.42;106901;1254;60403;-74
2023/11/10 03:45:55;;;;;;;24.30;17.00;;;;;;;4.23;92.20;100128.63;105884;1257;60339;-77
2023/11/10 03:48:24;;;;;;;21.30;15.00;;;;;;;4.25;92.20;100126.73;105661;1254;72646;-74
2023/11/10 03:50:52;;;;;;;19.60;15.80;;;;;;;4.33;91.66;100130.84;105602;1257;69372;-73
2023/11/10 03:53:20;;;;;;;20.50;15.30;;;;;;;4.32;91.76;100128.66;105752;1254;71473;-75
2023/11/10 03:55:47;;;;;;;22.50;16.00;;;;;;;4.27;92.18;100129.55;105965;1254;60543;-75
2023/11/10 03:58:15;;;;;;;19.80;14.50;;;;;;;4.29;92.19;100134.85;105902;1254;60396;-74
2023/11/10 04:00:42;;;;;;;20.80;15.30;;;;;;;4.37;91.74;100131.24;105719;1254;72183;-75
2023/11/10 04:03:16;;;;;;;24.10;17.70;;;;;;;4.38;91.90;100127.48;105593;1254;70091;-74
2023/11/10 04:05:44;;;;;;;27.20;20.30;;;;;;;4.33;91.95;100132.96;105654;1255;71442;-75
2023/11/10 04:08:14;;;;;;;22.00;16.30;;;;;;;4.31;92.22;100130.70;105735;1260;60509;-75
2023/11/10 04:10:42;;;;;;;21.90;15.30;;;;;;;4.37;91.90;100132.66;105711;1257;60404;-75
2023/11/10 04:13:10;;;;;;;21.50;16.00;;;;;;;4.37;91.68;100127.73;105791;1254;73892;-74
2023/11/10 04:15:37;;;;;;;21.80;16.40;;;;;;;4.31;91.82;100123.61;105722;1260;69067;-78
2023/11/10 04:18:04;;;;;;;26.80;19.70;;;;;;;4.32;91.76;100131.44;105754;1254;71103;-76
2023/11/10 04:20:34;;;;;;;18.30;15.50;;;;;;;4.38;91.56;100128.04;105802;1254;61096;-75
2023/11/10 04:23:02;;;;;;;22.40;17.50;;;;;;;4.35;91.71;100128.80;105913;1259;60442;-76
2023/11/10 04:25:30;;;;;;;23.30;16.70;;;;;;;4.29;91.94;100133.46;105811;1254;73960;-76
2023/11/10 04:28:00;;;;;;;21.10;16.00;;;;;;;4.25;92.03;100136.95;105762;1254;68706;-76
2023/11/10 04:30:28;;;;;;;21.60;15.10;;;;;;;4.30;91.93;100135.45;105815;1259;71239;-76
2023/11/10 04:32:56;;;;;;;24.30;18.30;;;;;;;4.33;91.59;100135.94;105704;1257;60416;-76
2023/11/10 04:35:23;;;;;;;29.10;19.50;;;;;;;4.28;91.72;100136.19;105823;1259;60537;-73
2023/11/10 04:37:51;;;;;;;36.40;19.70;;;;;;;4.24;91.83;100138.24;105919;1254;74968;-78
2023/11/10 04:40:18;;;;;;;38.60;19.30;;;;;;;4.28;91.62;100134.40;105639;1254;70347;-76
2023/11/10 04:42:46;;;;;;;35.30;19.40;;;;;;;4.33;91.16;100141.74;105840;1259;71446;-75
2023/11/10 04:45:13;;;;;;;36.10;19.70;;;;;;;4.29;91.07;100136.08;105949;1254;60535;-73
2023/11/10 04:47:41;;;;;;;36.10;20.20;;;;;;;4.26;91.27;100140.35;105859;1253;60518;-74
2023/11/10 04:50:10;;;;;;;30.90;18.80;;;;;;;4.31;91.06;100143.27;106013;1254;73882;-75
2023/11/10 04:52:38;;;;;;;32.10;18.40;;;;;;;4.35;90.87;100140.69;106076;1254;70302;-74
2023/11/10 04:55:07;;;;;;;26.90;17.00;;;;;;;4.31;90.97;100140.61;105645;1256;72701;-73
2023/11/10 04:57:35;;;;;;;31.00;17.60;;;;;;;4.28;90.93;100136.36;105849;1260;60421;-74
2023/11/10 05:00:06;;;;;;;26.10;15.90;;;;;;;4.35;90.57;100138.27;105836;1256;60341;-74
2023/11/10 05:02:33;;;;;;;22.10;15.30;;;;;;;4.40;90.44;100142.98;105904;1253;72849;-72
2023/11/10 05:05:01;;;;;;;31.80;17.40;;;;;;;4.37;90.85;100144.64;105857;1254;70279;-75
2023/11/10 05:07:28;;;;;;;27.70;16.40;;;;;;;4.32;90.68;100146.05;105864;1257;72714;-75
2023/11/10 05:09:56;;;;;;;23.40;14.60;;;;;;;4.37;90.64;100147.22;105846;1254;60449;-75
2023/11/10 05:12:24;;;;;;;24.10;17.10;;;;;;;4.43;90.36;100151.88;105818;1257;60376;-74
2023/11/10 05:14:52;;;;;;;24.40;16.30;;;;;;;4.39;90.33;100149.69;105803;1254;73787;-74
2023/11/10 05:17:19;;;;;;;26.90;17.40;;;;;;;4.36;90.56;100147.15;105758;1253;68713;-75
2023/11/10 05:19:48;;;;;;;27.50;15.90;;;;;;;4.37;90.42;100140.23;105474;1256;72460;-74
2023/11/10 05:22:15;;;;;;;26.10;17.20;;;;;;;4.47;90.18;100140.10;105830;1253;62523;-74
2023/11/10 05:24:43;;;;;;;25.10;17.00;;;;;;;4.51;89.99;100142.59;105672;1254;60593;-75
2023/11/10 05:27:11;;;;;;;23.10;17.20;;;;;;;4.49;89.87;100141.68;105836;1254;72660;-76
2023/11/10 05:29:38;;;;;;;28.00;18.40;;;;;;;4.47;90.10;100142.02;105965;1254;68990;-76
2023/11/10 05:32:06;;;;;;;22.00;17.00;;;;;;;4.55;89.60;100146.20;105871;1256;72710;-74
2023/11/10 05:34:34;;;;;;;32.90;20.00;;;;;;;4.63;89.37;100148.18;105767;1254;60589;-71
2023/11/10 05:37:03;;;;;;;25.30;17.70;;;;;;;4.62;89.17;100150.75;105792;1255;60377;-74
2023/11/10 05:39:31;;;;;;;24.00;17.40;;;;;;;4.60;88.89;100151.07;105659;1254;73936;-78
2023/11/10 05:41:58;;;;;;;19.90;14.90;;;;;;;4.60;89.08;100156.15;105675;1255;68952;-76
2023/11/10 05:44:26;;;;;;;23.60;16.20;;;;;;;4.69;88.38;100156.44;105638;1258;71456;-75
2023/11/10 05:46:53;;;;;;;24.20;17.10;;;;;;;4.78;87.97;100150.90;105653;1255;60430;-76
2023/11/10 05:49:21;;;;;;;26.00;18.30;;;;;;;4.77;88.10;100153.76;105668;1258;60406;-77
2023/11/10 05:51:48;;;;;;;29.90;19.70;;;;;;;4.75;88.18;100151.14;105706;1254;72400;-74
2023/11/10 05:54:16;;;;;;;28.40;19.60;;;;;;;4.74;87.86;100151.52;106019;1254;70264;-75
2023/11/10 05:56:45;;;;;;;25.40;16.80;;;;;;;4.84;87.60;100151.14;106674;1254;71344;-75
2023/11/10 05:59:13;;;;;;;24.10;18.00;;;;;;;4.93;87.41;100148.48;107689;1255;61330;-74
2023/11/10 06:01:40;;;;;;;24.10;18.00;;;;;;;4.94;87.35;100147.86;105769;1254;60606;-76
2023/11/10 06:04:08;;;;;;;23.70;17.30;;;;;;;4.94;87.34;100151.23;105710;1260;76076;-78
2023/11/10 06:06:51;;;;;;;18.80;14.90;;;;;;;4.95;87.13;100150.56;105653;1258;69847;-77
2023/11/10 06:09:22;;;;;;;22.30;14.90;;;;;;;5.08;86.55;100153.23;105774;1254;72856;-79
2023/11/10 06:11:52;;;;;;;19.90;14.70;;;;;;;5.18;86.16;100149.27;105670;1260;60417;-77
2023/11/10 06:14:22;;;;;;;18.80;13.90;;;;;;;5.21;86.06;100152.59;106035;1255;60336;-78
2023/11/10 06:16:50;;;;;;;18.80;14.70;;;;;;;5.23;85.73;100154.67;106148;1254;72588;-80
2023/11/10 06:19:17;;;;;;;20.40;12.80;;;;;;;5.27;85.72;100152.77;106182;1253;69331;-80
2023/11/10 06:21:45;;;;;;;13.20;11.10;;;;;;;5.41;85.53;100156.56;106145;1254;71552;-79
2023/11/10 06:24:13;;;;;;;14.90;12.00;;;;;;;5.52;84.79;100153.88;106186;1254;60451;-80
2023/11/10 06:26:40;;;;;;;16.30;12.50;;;;;;;5.55;84.65;100153.85;106963;1254;62404;-80
2023/11/10 06:29:08;;;;;;;18.80;13.70;;;;;;;5.57;84.42;100152.12;106603;1254;73889;-78
2023/11/10 06:31:36;;;;;;;15.60;11.30;;;;;;;5.59;84.08;100154.03;106436;1255;70103;-76
2023/11/10 06:34:04;;;;;;;17.50;12.00;;;;;;;5.71;83.77;100150.98;106309;1254;71335;-76
2023/11/10 06:36:32;;;;;;;18.10;12.70;;;;;;;5.86;83.70;100153.02;107943;1260;60416;-79
2023/11/10 06:39:02;;;;;;;18.20;12.20;;;;;;;5.93;83.01;100156.38;107360;1254;60576;-78
2023/11/10 06:41:31;;;;;;;20.30;14.00;;;;;;;5.97;82.70;100150.24;106429;1258;75023;-79
2023/11/10 06:43:58;;;;;;;19.10;14.60;;;;;;;6.01;82.64;100148.65;106195;1254;70143;-80
2023/11/10 06:46:27;;;;;;;17.00;13.50;;;;;;;6.06;82.44;100146.36;106122;1258;72378;-79
2023/11/10 06:48:57;;;;;;;17.20;12.60;;;;;;;6.19;81.70;100138.39;106203;1256;60480;-78
2023/11/10 06:51:24;;;;;;;16.70;12.70;;;;;;;6.29;81.70;100132.80;106974;1256;60384;-78
2023/11/10 06:53:52;;;;;;;16.60;12.70;;;;;;;6.32;81.47;100135.73;107564;1253;72842;-80
2023/11/10 06:56:20;;;;;;;19.70;13.70;;;;;;;6.33;81.28;100138.59;106446;1254;70088;-80
2023/11/10 06:58:48;;;;;;;18.90;12.80;;;;;;;6.34;80.74;100135.91;106285;1256;71510;-81
2023/11/10 07:01:16;;;;;;;17.40;12.40;;;;;;;6.39;80.82;100136.81;109098;1254;61156;-82
2023/11/10 07:03:45;;;;;;;17.10;12.10;;;;;;;6.50;80.41;100129.75;106276;1254;60455;-82
2023/11/10 07:06:13;;;;;;;18.30;12.90;;;;;;;6.55;80.29;100128.84;106304;1254;75022;-79
2023/11/10 07:08:42;;;;;;;17.00;12.00;;;;;;;6.58;80.35;100133.80;106105;1254;71095;-78
2023/11/10 07:11:13;;;;;;;13.00;10.00;;;;;;;6.64;79.82;100128.02;106005;1255;72710;-81
2023/11/10 07:13:41;;;;;;;15.10;9.60;;;;;;;6.72;78.68;100129.98;106037;1256;62831;-80
2023/11/10 07:16:08;;;;;;;14.30;9.00;;;;;;;6.90;78.43;100128.23;108662;1253;59101;-78
2023/11/10 07:18:36;;;;;;;13.40;9.00;;;;;;;7.02;77.96;100128.54;109403;1254;73066;-81
2023/11/10 07:21:04;;;;;;;12.60;8.60;;;;;;;7.11;77.45;100130.26;109261;1254;69045;-81
2023/11/10 07:23:32;;;;;;;9.30;7.70;;;;;;;7.18;76.60;100127.81;109222;1254;71068;-79
2023/11/10 07:25:59;;;;;;;9.70;7.40;;;;;;;7.26;76.12;100129.04;109380;1254;58814;-81
2023/11/10 07:28:30;;;;;;;12.10;7.90;;;;;;;7.35;75.55;100123.00;109403;1254;58737;-80
2023/11/10 07:30:58;;;;;;;9.30;7.20;;;;;;;7.52;75.03;100131.46;109381;1254;72599;-80
2023/11/10 07:33:26;;;;;;;10.70;7.80;;;;;;;7.64;74.77;100121.39;109433;1254;68727;-78
2023/11/10 07:35:53;;;;;;;12.10;8.60;;;;;;;7.72;74.38;100118.05;109381;1254;71072;-78
2023/11/10 07:38:21;;;;;;;11.20;8.10;;;;;;;7.80;74.40;100118.43;109387;1255;58127;-78
2023/11/10 07:40:49;;;;;;;12.00;8.60;;;;;;;7.85;73.83;100123.18;109386;1254;58739;-80
2023/11/10 07:43:17;;;;;;;10.60;7.80;;;;;;;7.89;73.68;100119.49;109413;1254;72915;-81
2023/11/10 07:45:44;;;;;;;12.00;7.70;;;;;;;7.92;73.66;100121.55;109438;1254;71071;-76
2023/11/10 07:48:15;;;;;;;10.80;7.60;;;;;;;8.00;73.25;100116.17;109415;1254;71237;-78
2023/11/10 07:50:43;;;;;;;10.10;7.50;;;;;;;8.05;73.65;100113.45;109525;1253;59022;-79
2023/11/10 07:53:13;;;;;;;10.10;7.10;;;;;;;8.04;73.24;100114.41;109461;1254;58736;-78
2023/11/10 07:55:41;;;;;;;9.00;7.40;;;;;;;8.03;72.99;100115.89;109458;1254;72849;-80
2023/11/10 07:58:08;;;;;;;10.80;7.60;;;;;;;8.02;73.18;100112.13;109349;1254;69321;-80
2023/11/10 08:00:35;;;;;;;10.70;7.10;;;;;;;8.01;73.14;100111.14;109322;1254;71659;-78
2023/11/10 08:03:03;;;;;;;9.50;7.80;;;;;;;8.05;73.16;100110.59;109372;1259;60403;-79
2023/11/10 08:05:31;;;;;;;8.40;6.40;;;;;;;8.20;72.97;100125.80;109399;1254;58724;-79
2023/11/10 08:08:02;;;;;;;8.70;6.60;;;;;;;8.34;72.84;100116.89;109384;1254;72614;-79
2023/11/10 08:10:29;;;;;;;8.80;7.20;;;;;;;8.44;72.50;100117.94;109362;1254;68766;-80
2023/11/10 08:12:57;;;;;;;9.50;7.30;;;;;;;8.53;72.28;100126.30;109274;1254;71094;-79
2023/11/10 08:15:25;;;;;;;10.20;7.70;;;;;;;8.60;71.53;100114.29;109416;1254;61144;-77
2023/11/10 08:17:53;;;;;;;9.40;7.00;;;;;;;8.65;71.50;100103.36;109419;1254;58865;-77
2023/11/10 08:20:20;;;;;;;10.50;8.20;;;;;;;8.73;72.03;100105.51;109389;1253;72910;-77
2023/11/10 08:22:48;;;;;;;7.80;6.30;;;;;;;8.84;71.90;100107.95;109346;1254;69045;-78
2023/11/10 08:25:15;;;;;;;9.70;6.70;;;;;;;8.99;70.98;100108.81;109337;1254;71742;-77
2023/11/10 08:27:43;;;;;;;8.40;6.00;;;;;;;9.16;70.56;100109.62;109433;1254;57826;-77
2023/11/10 08:30:11;;;;;;;8.40;6.30;;;;;;;9.24;69.78;100113.41;109431;1254;60276;-80
2023/11/10 08:32:40;;;;;;;10.80;6.00;;;;;;;9.23;69.50;100113.84;109278;1254;71596;-79
2023/11/10 08:35:09;;;;;;;8.10;6.70;;;;;;;9.24;69.56;100113.29;109271;1254;70866;-79
2023/11/10 08:37:37;;;;;;;9.40;6.90;;;;;;;9.27;69.48;100110.54;109451;1254;71172;-76
2023/11/10 08:40:09;;;;;;;8.10;6.70;;;;;;;9.29;69.45;100104.33;109183;1254;61112;-76
2023/11/10 08:44:57;;;;;;;8.90;6.80;;;;;;;9.43;69.93;100091.48;106691;1284;599595;-76
2023/11/10 08:47:24;;;;;;;8.80;5.70;;;;;;;9.49;69.82;100079.35;108642;1266;60954;-78
2023/11/10 08:49:53;;;;;;;8.10;6.50;;;;;;;9.65;69.97;100084.15;108542;1266;60917;-77
2023/11/10 08:52:20;;;;;;;10.20;7.00;;;;;;;9.85;69.09;100074.52;108676;1266;70860;-77
2023/11/10 08:54:48;;;;;;;7.10;6.00;;;;;;;10.06;68.84;100074.15;108763;1265;69312;-79
2023/11/10 08:57:16;;;;;;;8.90;6.70;;;;;;;10.30;68.16;100073.55;108720;1266;73642;-78
2023/11/10 08:59:43;;;;;;;8.10;7.00;;;;;;;10.49;67.60;100067.53;108540;1265;200160;-78
2023/11/10 09:02:11;;;;;;;8.20;6.20;;;;;;;10.63;66.92;100068.19;108805;1263;58915;-77
2023/11/10 09:04:39;;;;;;;7.40;5.70;;;;;;;10.72;66.13;100079.75;108826;1263;71245;-78
2023/11/10 09:07:07;;;;;;;6.30;5.60;;;;;;;10.78;65.92;100071.56;108832;1262;68583;-77
2023/11/10 09:09:34;;;;;;;10.90;6.70;;;;;;;10.81;65.60;100064.90;108796;1269;71237;-84
2023/11/10 09:12:04;;;;;;;6.80;5.80;;;;;;;10.82;65.52;100055.67;108793;1263;59310;-78
2023/11/10 09:14:31;;;;;;;8.10;5.80;;;;;;;10.79;65.13;100059.86;108792;1263;61002;-75
2023/11/10 09:16:59;;;;;;;8.20;6.00;;;;;;;10.76;65.52;100050.43;108785;1263;73790;-78
2023/11/10 09:19:27;;;;;;;8.20;5.60;;;;;;;10.75;65.59;100061.55;109380;1254;68734;-76
2023/11/10 09:21:58;;;;;;;7.30;5.50;;;;;;;10.75;65.39;100054.18;109373;1254;71268;-75
2023/11/10 09:24:26;;;;;;;8.30;6.00;;;;;;;10.80;65.33;100058.27;109334;1254;58771;-74
2023/11/10 09:26:54;;;;;;;6.20;5.50;;;;;;;10.94;65.38;100054.92;109326;1254;61602;-76
2023/11/10 09:29:21;;;;;;;7.60;5.60;;;;;;;11.17;64.67;100048.41;109417;1254;72064;-76
2023/11/10 09:31:49;;;;;;;7.30;6.20;;;;;;;11.44;64.40;100039.77;109406;1254;69042;-78
2023/11/10 09:34:18;;;;;;;7.30;5.80;;;;;;;11.77;63.96;100036.52;109264;1254;73772;-78
2023/11/10 09:36:46;;;;;;;7.70;6.40;;;;;;;12.13;62.65;100044.26;109323;1254;61059;-75
2023/11/10 09:39:15;;;;;;;8.20;6.10;;;;;;;12.53;61.80;100024.16;109374;1254;58080;-78
2023/11/10 09:41:46;;;;;;;7.30;5.60;;;;;;;13.00;61.26;100016.86;109319;1254;74133;-76
2023/11/10 09:44:14;;;;;;;7.00;6.00;;;;;;;13.46;59.79;100041.08;109197;1257;68789;-77
2023/11/10 09:46:46;;;;;;;7.20;6.40;;;;;;;13.93;59.17;100029.11;109446;1254;73604;-78
2023/11/10 09:49:14;;;;;;;8.30;5.30;;;;;;;14.43;57.63;100019.35;109150;1254;58578;-78
2023/11/10 09:51:42;;;;;;;9.00;5.80;;;;;;;14.89;55.89;100023.11;109456;1254;61266;-76
2023/11/10 09:54:10;;;;;;;6.60;5.20;;;;;;;15.15;55.10;100011.16;109414;1256;71853;-77
2023/11/10 09:56:39;;;;;;;6.20;5.60;;;;;;;15.23;54.36;100012.84;109318;1254;68739;-78
2023/11/10 09:59:07;;;;;;;7.50;5.60;;;;;;;15.33;54.83;99999.92;109290;1253;71572;-77
2023/11/10 10:01:34;;;;;;;5.60;4.80;;;;;;;15.54;54.22;100004.81;109364;1254;59129;-78
2023/11/10 10:04:03;;;;;;;6.30;5.10;;;;;;;15.75;53.50;100014.19;109406;1254;61133;-78
2023/11/10 10:07:39;;;;;;;4.60;4.10;;;;;;;15.96;52.55;100000.45;106174;1291;600098;-77
2023/11/10 10:10:09;;;;;;;5.30;4.70;;;;;;;15.96;52.63;99985.07;109150;1257;61129;-81
2023/11/10 10:12:43;;;;;;;6.80;5.20;;;;;;;16.05;52.90;99984.42;109201;1257;61113;-77
2023/11/10 10:15:12;;;;;;;6.40;4.60;;;;;;;16.28;52.16;99990.05;108933;1259;70778;-80
2023/11/10 10:17:40;;;;;;;6.70;4.40;;;;;;;16.36;51.48;99981.39;109072;1259;71002;-79
2023/11/10 10:20:16;;;;;;;7.50;5.00;;;;;;;16.25;51.62;99971.99;108851;1259;203579;-72
2023/11/10 10:22:44;;;;;;;4.40;4.00;;;;;;;16.12;51.91;99962.40;109149;1257;60770;-76
2023/11/10 10:25:13;;;;;;;6.30;4.70;;;;;;;16.10;51.98;99963.42;109237;1257;58950;-77
2023/11/10 10:27:41;;;;;;;6.40;5.00;;;;;;;16.02;52.19;99960.21;109235;1257;71319;-80
2023/11/10 10:30:09;;;;;;;6.00;4.50;;;;;;;15.97;52.24;99968.19;109367;1256;69343;-77
2023/11/10 10:32:37;;;;;;;6.60;4.80;;;;;;;15.86;51.80;99982.71;109359;1256;71681;-78
2023/11/10 10:38:06;;;;;;;5.10;4.60;;;;;;;15.95;52.24;99974.07;106279;1292;599448;-77
2023/11/10 10:40:35;;;;;;;4.90;4.40;;;;;;;16.14;51.65;99956.06;108686;1265;61053;-77
2023/11/10 10:43:04;;;;;;;5.20;4.70;;;;;;;16.23;51.01;99950.86;108683;1266;60950;-78
2023/11/10 10:45:32;;;;;;;5.00;4.50;;;;;;;16.31;51.10;99950.89;108707;1262;72326;-77
2023/11/10 10:48:03;;;;;;;3.90;3.40;;;;;;;16.27;50.34;99963.17;108765;1263;68611;-76
2023/11/10 10:50:37;;;;;;;6.10;4.40;;;;;;;16.04;50.48;99953.05;108685;1263;73722;-76
2023/11/10 10:53:06;;;;;;;4.50;4.10;;;;;;;15.86;51.24;99966.34;109231;1254;59460;-76
2023/11/10 10:55:33;;;;;;;8.00;4.00;;;;;;;15.78;51.47;99952.03;109488;1252;59608;-76
2023/11/10 10:58:01;;;;;;;4.20;3.80;;;;;;;15.63;51.58;99948.70;109459;1254;71023;-76
2023/11/10 11:00:31;;;;;;;4.90;4.40;;;;;;;15.39;51.75;99963.56;109318;1252;68299;-76
2023/11/10 11:03:23;;;;;;;6.10;3.90;;;;;;;15.03;52.67;99963.80;109524;1251;71714;-77
2023/11/10 11:07:40;;;;;;;4.50;4.10;;;;;;;14.53;53.92;99963.30;105872;1296;599816;-77
2023/11/10 11:10:15;;;;;;;5.20;4.20;;;;;;;14.18;54.38;99960.94;108300;1269;58783;-76
2023/11/10 11:12:57;;;;;;;5.50;4.10;;;;;;;13.83;55.05;99951.77;108420;1268;59057;-74
2023/11/10 11:15:53;;;;;;;4.70;3.90;;;;;;;13.62;56.04;99934.91;108376;1268;71305;-77
2023/11/10 11:18:49;;;;;;;7.70;4.70;;;;;;;13.61;56.35;99939.61;108310;1270;70690;-77
2023/11/10 11:21:18;;;;;;;4.90;4.20;;;;;;;13.58;56.01;99936.82;108281;1270;283030;-75
2023/11/10 11:23:52;;;;;;;5.80;4.00;;;;;;;13.54;56.27;99944.50;108366;1269;61249;-75
2023/11/10 11:26:19;;;;;;;7.20;4.50;;;;;;;13.49;56.47;99959.80;108477;1267;59062;-74
2023/11/10 11:28:47;;;;;;;6.10;4.50;;;;;;;13.50;56.33;99960.30;108911;1260;71727;-74